Plano's Hourly Summary for Thursday, April 20, 2017
Hour Temp
(f)
RH
(%)
Solar Rad.
(MJ/m2)
Rainfall
(in)
Wind
(mph)
4/20/2017 12:00 AM 73 71 0 0 4.14
4/20/2017 1:00 AM 71 76 0 0 4.39
4/20/2017 2:00 AM 71 79 0 0 4.81
4/20/2017 3:00 AM 70 78 0 0 5.51
4/20/2017 4:00 AM 69 79 0 0 4.92
4/20/2017 5:00 AM 68 80 0 0 4.5
4/20/2017 6:00 AM 69 78 0 0 4.88
4/20/2017 7:00 AM 69 75 0 0 4.75
4/20/2017 8:00 AM 69 74 0.07 0 4.22
4/20/2017 9:00 AM 70 72 0.44 0 4.3
4/20/2017 10:00 AM 71 70 0.77 0 4.43
4/20/2017 11:00 AM 73 66 1.06 0 3.81
4/20/2017 12:00 PM 75 62 1.65 0 3.42
4/20/2017 1:00 PM 78 58 2.92 0 4.33
4/20/2017 2:00 PM 79 54 3.12 0 4.76
4/20/2017 3:00 PM 80 54 2.63 0 4.92
4/20/2017 4:00 PM 81 51 1.95 0 4.16
4/20/2017 5:00 PM 82 49 1.57 0 3.72
4/20/2017 6:00 PM 81 50 1.04 0 4.19
4/20/2017 7:00 PM 81 51 0.72 0 4.19
4/20/2017 8:00 PM 79 54 0.15 0 3.28
4/20/2017 9:00 PM 77 59 0 0 2.4
4/20/2017 10:00 PM 75 63 0 0 1.12
4/20/2017 11:00 PM 74 66 0 0 1.48
Data Summary 74 65 18.09 0.00 4.03